createdAt,value
2023-03-02T00:01:09.515Z,127.90
2023-03-02T00:03:41.135Z,118.93
2023-03-02T00:06:09.937Z,114.30
2023-03-02T00:08:38.225Z,115.40
2023-03-02T00:11:05.483Z,101.17
2023-03-02T00:13:34.347Z,93.03
2023-03-02T00:16:01.310Z,97.73
2023-03-02T00:18:28.268Z,107.60
2023-03-02T00:20:55.386Z,100.37
2023-03-02T00:23:22.232Z,78.33
2023-03-02T00:25:49.028Z,71.33
2023-03-02T00:28:16.612Z,60.90
2023-03-02T00:30:43.454Z,60.30
2023-03-02T00:33:10.465Z,65.93
2023-03-02T00:35:41.366Z,69.07
2023-03-02T00:38:08.982Z,62.00
2023-03-02T00:40:36.467Z,69.63
2023-03-02T00:43:03.736Z,70.37
2023-03-02T00:45:30.913Z,68.87
2023-03-02T00:47:57.756Z,64.20
2023-03-02T00:50:24.667Z,65.47
2023-03-02T00:52:51.707Z,68.93
2023-03-02T00:55:18.669Z,67.37
2023-03-02T00:57:54.903Z,68.70
2023-03-02T01:00:23.291Z,67.70
2023-03-02T01:02:50.817Z,69.33
2023-03-02T01:05:18.014Z,66.33
2023-03-02T01:07:45.004Z,65.00
2023-03-02T01:10:12.252Z,64.50
2023-03-02T01:12:39.270Z,67.03
2023-03-02T01:15:06.996Z,64.83
2023-03-02T01:17:33.851Z,65.80
2023-03-02T01:20:00.683Z,67.77
2023-03-02T01:22:27.512Z,71.10
2023-03-02T01:24:54.407Z,66.67
2023-03-02T01:27:21.469Z,68.10
2023-03-02T01:29:48.289Z,65.60
2023-03-02T01:32:15.164Z,63.93
2023-03-02T01:34:42.163Z,65.63
2023-03-02T01:37:08.988Z,62.77
2023-03-02T01:39:35.829Z,67.47
2023-03-02T01:42:02.664Z,65.70
2023-03-02T01:44:57.330Z,67.50
2023-03-02T01:47:26.876Z,64.30
2023-03-02T01:49:59.138Z,66.80
2023-03-02T01:52:27.072Z,65.63
2023-03-02T01:54:58.551Z,65.40
2023-03-02T01:57:30.636Z,67.07
2023-03-02T02:00:01.986Z,66.40
2023-03-02T02:02:29.255Z,65.27
2023-03-02T02:04:57.034Z,69.00
2023-03-02T02:07:23.990Z,69.33
2023-03-02T02:09:52.767Z,69.80
2023-03-02T02:12:22.772Z,65.17
2023-03-02T02:14:50.491Z,73.87
2023-03-02T02:17:19.116Z,74.50
2023-03-02T02:19:48.975Z,72.83
2023-03-02T02:22:27.042Z,69.87
2023-03-02T02:24:58.963Z,68.00
2023-03-02T02:27:33.688Z,71.07
2023-03-02T02:30:04.485Z,71.43
2023-03-02T02:32:36.934Z,72.77
2023-03-02T02:35:12.534Z,70.87
2023-03-02T02:37:52.076Z,67.27
2023-03-02T02:40:40.290Z,65.33
2023-03-02T02:43:09.684Z,67.17
2023-03-02T02:45:36.672Z,67.97
2023-03-02T02:48:03.646Z,66.83
2023-03-02T02:50:33.789Z,65.80
2023-03-02T02:53:19.453Z,68.77
2023-03-02T02:55:52.933Z,69.47
2023-03-02T02:58:32.669Z,67.07
2023-03-02T03:01:00.818Z,63.30
2023-03-02T03:03:31.418Z,63.93
2023-03-02T03:06:01.252Z,62.00
2023-03-02T03:08:46.474Z,59.30
2023-03-02T03:11:19.547Z,62.33
2023-03-02T03:13:47.035Z,63.13
2023-03-02T03:16:16.863Z,65.17
2023-03-02T03:18:47.107Z,62.10
2023-03-02T03:21:13.982Z,61.97
2023-03-02T03:23:40.829Z,58.27
2023-03-02T03:26:07.709Z,56.37
2023-03-02T03:28:35.801Z,55.93
2023-03-02T03:31:03.010Z,57.63
2023-03-02T03:33:29.933Z,58.30
2023-03-02T03:35:56.803Z,57.50
2023-03-02T03:38:23.814Z,56.17
2023-03-02T03:40:50.629Z,55.07
2023-03-02T03:43:17.521Z,55.07
2023-03-02T03:45:44.452Z,58.10
2023-03-02T03:48:11.355Z,60.93
2023-03-02T03:50:38.286Z,59.60
2023-03-02T03:53:05.233Z,60.90
2023-03-02T03:55:32.127Z,58.33
2023-03-02T03:57:58.940Z,61.53
2023-03-02T04:00:25.961Z,58.57
2023-03-02T04:02:52.966Z,61.63
2023-03-02T04:05:20.257Z,59.73
2023-03-02T04:07:47.112Z,59.73
2023-03-02T04:10:14.030Z,61.20
2023-03-02T04:12:41.588Z,61.27
2023-03-02T04:15:10.735Z,61.23
2023-03-02T04:17:37.586Z,59.00
2023-03-02T04:20:07.842Z,59.20
2023-03-02T04:22:34.669Z,59.80
2023-03-02T04:25:01.712Z,58.43
2023-03-02T04:27:28.571Z,64.23
2023-03-02T04:29:55.421Z,62.23
2023-03-02T04:32:22.282Z,60.37
2023-03-02T04:34:49.129Z,59.20
2023-03-02T04:37:16.168Z,60.30
2023-03-02T04:39:44.960Z,56.77
2023-03-02T04:42:11.822Z,56.43
2023-03-02T04:44:38.740Z,55.10
2023-03-02T04:47:05.611Z,55.17
2023-03-02T04:49:32.431Z,55.07
2023-03-02T04:51:59.237Z,54.30
2023-03-02T04:54:27.066Z,53.47
2023-03-02T04:56:54.493Z,53.87
2023-03-02T04:59:26.111Z,55.23
2023-03-02T05:01:58.508Z,52.93
2023-03-02T05:04:26.718Z,49.80
2023-03-02T05:06:53.964Z,52.30
2023-03-02T05:09:27.142Z,51.53
2023-03-02T05:11:59.726Z,51.00
2023-03-02T05:14:26.802Z,63.43
2023-03-02T05:16:54.494Z,79.30
2023-03-02T05:19:21.389Z,91.43
2023-03-02T05:21:48.390Z,96.20
2023-03-02T05:24:15.290Z,88.77
2023-03-02T05:26:42.323Z,69.43
2023-03-02T05:29:09.474Z,62.73
2023-03-02T05:31:40.742Z,59.17
2023-03-02T05:34:11.518Z,57.97
2023-03-02T05:36:38.970Z,57.67
2023-03-02T05:39:07.169Z,56.80
2023-03-02T05:41:34.670Z,61.80
2023-03-02T05:44:01.862Z,58.77
2023-03-02T05:46:29.120Z,63.70
2023-03-02T05:48:56.026Z,60.83
2023-03-02T05:51:22.896Z,68.17
2023-03-02T05:53:49.801Z,67.10
2023-03-02T05:56:16.645Z,67.80
2023-03-02T05:58:43.570Z,69.63
2023-03-02T06:01:12.654Z,67.03
2023-03-02T06:03:42.086Z,65.67
2023-03-02T06:06:09.043Z,69.83
2023-03-02T06:08:41.042Z,71.23
2023-03-02T06:11:08.983Z,114.97
2023-03-02T06:13:36.173Z,124.70
2023-03-02T06:16:03.305Z,118.27
2023-03-02T06:18:30.253Z,115.80
2023-03-02T06:20:57.142Z,114.83
2023-03-02T06:23:24.016Z,117.57
2023-03-02T06:25:50.857Z,117.73
2023-03-02T06:28:22.072Z,112.17
2023-03-02T06:30:49.982Z,109.23
2023-03-02T06:33:19.040Z,109.17
2023-03-02T06:35:46.525Z,111.73
2023-03-02T06:38:13.505Z,111.77
2023-03-02T06:40:40.297Z,105.67
2023-03-02T06:43:07.156Z,97.57
2023-03-02T06:45:34.207Z,98.50
2023-03-02T06:48:02.146Z,98.53
2023-03-02T06:50:29.070Z,93.30
2023-03-02T06:52:56.158Z,98.97
2023-03-02T06:55:23.179Z,99.47
2023-03-02T06:57:50.345Z,84.67
2023-03-02T07:00:17.883Z,76.53
2023-03-02T07:02:45.489Z,81.67
2023-03-02T07:05:12.867Z,80.33
2023-03-02T07:07:39.892Z,90.23
2023-03-02T07:10:08.034Z,111.20
2023-03-02T07:12:35.310Z,109.57
2023-03-02T07:15:02.356Z,108.87
2023-03-02T07:17:29.207Z,115.50
2023-03-02T07:19:56.028Z,110.67
2023-03-02T07:22:22.900Z,109.67
2023-03-02T07:24:49.741Z,106.80
2023-03-02T07:27:16.608Z,111.70
2023-03-02T07:29:43.720Z,111.57
2023-03-02T07:32:12.435Z,112.70
2023-03-02T07:34:39.963Z,94.20
2023-03-02T07:37:06.874Z,87.23
2023-03-02T07:39:33.784Z,108.33
2023-03-02T07:42:02.169Z,93.37
2023-03-02T07:44:29.270Z,90.38
2023-03-02T07:46:56.167Z,96.95
2023-03-02T07:49:23.480Z,88.13
2023-03-02T07:51:50.367Z,92.90
2023-03-02T07:54:17.205Z,88.75
2023-03-02T07:56:44.137Z,104.00
2023-03-02T07:59:12.566Z,106.43
2023-03-02T08:01:39.706Z,102.75
2023-03-02T08:04:06.776Z,98.15
2023-03-02T08:06:33.621Z,94.43
2023-03-02T08:09:03.519Z,95.50
2023-03-02T08:11:30.653Z,89.90
2023-03-02T08:14:03.118Z,85.20
2023-03-02T08:16:30.724Z,92.55
2023-03-02T08:18:59.893Z,96.55
2023-03-02T08:21:27.588Z,97.47
2023-03-02T08:23:54.534Z,91.85
2023-03-02T08:26:21.784Z,98.30
2023-03-02T08:28:48.641Z,98.93
2023-03-02T08:31:16.036Z,102.80
2023-03-02T08:33:43.910Z,98.38
2023-03-02T08:36:16.610Z,99.40
2023-03-02T08:38:43.702Z,105.68
2023-03-02T08:41:17.468Z,106.70
2023-03-02T08:43:44.570Z,101.53
2023-03-02T08:46:13.346Z,101.97
2023-03-02T08:48:40.540Z,94.50
2023-03-02T08:51:10.553Z,92.05
2023-03-02T08:53:40.381Z,90.47
2023-03-02T08:56:20.220Z,94.45
2023-03-02T08:58:48.709Z,86.80
2023-03-02T09:01:23.957Z,86.18
2023-03-02T09:03:51.513Z,87.82
2023-03-02T09:06:18.607Z,79.75
2023-03-02T09:08:45.627Z,81.00
2023-03-02T09:11:12.581Z,74.43
2023-03-02T09:13:39.489Z,68.63
2023-03-02T09:16:08.587Z,70.22
2023-03-02T09:18:36.212Z,62.42
2023-03-02T09:21:03.265Z,61.53
2023-03-02T09:23:31.193Z,59.50
2023-03-02T09:25:58.226Z,56.47
2023-03-02T09:28:25.222Z,57.50
2023-03-02T09:30:54.878Z,52.58
2023-03-02T09:33:21.892Z,52.40
2023-03-02T09:35:49.498Z,52.70
2023-03-02T09:38:18.448Z,52.35
2023-03-02T09:41:21.070Z,51.60
2023-03-02T09:44:12.379Z,53.85
2023-03-02T09:47:03.443Z,53.60
2023-03-02T09:49:55.176Z,50.88
2023-03-02T09:52:40.508Z,55.03
2023-03-02T09:55:28.964Z,52.88
2023-03-02T09:57:56.364Z,55.78
2023-03-02T10:00:31.583Z,59.83
2023-03-02T10:03:14.902Z,56.00
2023-03-02T10:05:52.079Z,54.95
2023-03-02T10:08:29.340Z,61.47
2023-03-02T10:11:15.774Z,61.35
2023-03-02T10:14:18.056Z,60.03
2023-03-02T10:16:52.815Z,54.33
2023-03-02T10:19:25.249Z,52.92
2023-03-02T10:22:15.510Z,52.97
2023-03-02T10:25:00.785Z,48.80
2023-03-02T10:27:39.709Z,47.80
2023-03-02T10:30:37.923Z,49.58
2023-03-02T10:33:15.611Z,44.42
2023-03-02T10:35:54.059Z,42.53
2023-03-02T10:38:25.496Z,42.45
2023-03-02T10:41:00.764Z,43.08
2023-03-02T10:43:42.148Z,40.80
2023-03-02T10:46:11.632Z,39.05
2023-03-02T10:48:50.642Z,39.85
2023-03-02T10:51:28.403Z,37.40
2023-03-02T10:54:06.643Z,34.97
2023-03-02T10:56:34.819Z,34.80
2023-03-02T10:59:04.561Z,33.20
2023-03-02T11:01:32.049Z,33.45
2023-03-02T11:04:01.681Z,32.83
2023-03-02T11:06:29.884Z,33.33
2023-03-02T11:09:01.207Z,33.65
2023-03-02T11:11:28.522Z,33.03
2023-03-02T11:13:57.000Z,32.53
2023-03-02T11:16:32.281Z,32.28
2023-03-02T11:19:03.546Z,32.88
2023-03-02T11:21:43.540Z,31.15
2023-03-02T11:24:31.864Z,30.30
2023-03-02T11:27:12.953Z,29.42
2023-03-02T11:30:19.091Z,29.58
2023-03-02T11:32:46.313Z,29.55
2023-03-02T11:35:22.705Z,26.55
2023-03-02T11:37:55.746Z,27.25
2023-03-02T11:40:33.458Z,29.38
2023-03-02T11:43:04.952Z,27.02
2023-03-02T11:45:42.068Z,27.48
2023-03-02T11:48:23.364Z,27.75
2023-03-02T11:50:55.785Z,26.60
2023-03-02T11:53:26.937Z,26.25
2023-03-02T11:55:53.861Z,27.05
2023-03-02T11:58:26.651Z,27.23
2023-03-02T12:00:54.754Z,28.30
2023-03-02T12:03:36.496Z,28.67
2023-03-02T12:06:25.165Z,27.47
2023-03-02T12:09:08.018Z,27.60
2023-03-02T12:11:39.577Z,28.17
2023-03-02T12:14:43.695Z,27.90
2023-03-02T12:17:25.006Z,27.83
2023-03-02T12:20:06.960Z,27.63
2023-03-02T12:22:34.792Z,28.57
2023-03-02T12:25:06.884Z,27.93
2023-03-02T12:27:38.619Z,27.70
2023-03-02T12:30:26.788Z,27.60
2023-03-02T12:33:26.113Z,26.70
2023-03-02T12:36:25.886Z,27.47
2023-03-02T12:39:13.723Z,27.07
2023-03-02T12:41:56.718Z,27.47
2023-03-02T12:44:31.471Z,25.60
2023-03-02T12:46:59.589Z,27.27
2023-03-02T12:49:45.654Z,28.37
2023-03-02T12:52:39.216Z,29.67
2023-03-02T12:55:19.887Z,28.40
2023-03-02T12:57:50.421Z,27.23
2023-03-02T13:00:19.965Z,28.23
2023-03-02T13:02:52.695Z,27.97
2023-03-02T13:05:31.493Z,28.47
2023-03-02T13:08:05.991Z,28.17
2023-03-02T13:10:42.724Z,28.53
2023-03-02T13:13:22.606Z,28.77
2023-03-02T13:15:52.272Z,27.93
2023-03-02T13:18:21.302Z,27.30
2023-03-02T13:20:49.254Z,29.40
2023-03-02T13:23:17.861Z,27.93
2023-03-02T13:25:52.449Z,29.73
2023-03-02T13:28:28.353Z,29.10
2023-03-02T13:31:07.341Z,28.17
2023-03-02T13:33:41.415Z,27.67
2023-03-02T13:36:08.506Z,27.77
2023-03-02T13:38:37.919Z,27.50
2023-03-02T13:41:05.117Z,27.77
2023-03-02T13:43:41.332Z,27.93
2023-03-02T13:46:27.563Z,26.87
2023-03-02T13:49:12.584Z,25.47
2023-03-02T13:51:42.488Z,26.13
2023-03-02T13:54:22.280Z,24.27
2023-03-02T13:56:51.316Z,17.97
2023-03-02T13:59:21.220Z,23.10
2023-03-02T14:01:48.591Z,17.30
2023-03-02T14:04:18.150Z,18.10
2023-03-02T14:06:46.037Z,18.43
2023-03-02T14:09:13.504Z,19.40
2023-03-02T14:11:43.871Z,20.23
2023-03-02T14:14:21.118Z,20.60
2023-03-02T14:16:48.299Z,20.37
2023-03-02T14:19:18.412Z,18.33
2023-03-02T14:21:48.217Z,17.50
2023-03-02T14:24:15.185Z,31.23
2023-03-02T14:26:45.003Z,20.20
2023-03-02T14:29:26.143Z,17.37
2023-03-02T14:31:57.089Z,16.20
2023-03-02T14:34:23.993Z,18.20
2023-03-02T14:36:54.119Z,15.90
2023-03-02T14:39:41.201Z,15.47
2023-03-02T14:42:19.245Z,16.40
2023-03-02T14:44:47.773Z,16.07
2023-03-02T14:47:16.677Z,17.10
2023-03-02T14:49:43.909Z,18.37
2023-03-02T14:52:17.055Z,17.67
2023-03-02T14:54:59.867Z,19.23
2023-03-02T14:57:29.230Z,18.10
2023-03-02T14:59:59.946Z,19.03
2023-03-02T15:02:27.440Z,18.77
2023-03-02T15:04:57.423Z,19.53
2023-03-02T15:07:26.553Z,19.33
2023-03-02T15:09:53.944Z,18.33
2023-03-02T15:12:20.812Z,17.07
2023-03-02T15:14:47.638Z,17.93
2023-03-02T15:17:14.522Z,17.17
2023-03-02T15:19:41.395Z,16.83
2023-03-02T15:22:08.459Z,17.07
2023-03-02T15:24:35.278Z,16.73
2023-03-02T15:27:02.109Z,16.37
2023-03-02T15:29:28.961Z,15.30
2023-03-02T15:31:55.878Z,17.00
2023-03-02T15:34:22.899Z,15.53
2023-03-02T15:36:49.881Z,14.67
2023-03-02T15:39:17.133Z,13.53
2023-03-02T15:41:44.188Z,14.20
2023-03-02T15:44:22.246Z,13.43
2023-03-02T15:46:51.834Z,13.23
2023-03-02T15:49:24.529Z,13.37
2023-03-02T15:51:52.239Z,13.87
2023-03-02T15:54:19.372Z,12.90
2023-03-02T15:56:49.698Z,12.73
2023-03-02T15:59:16.565Z,12.90
2023-03-02T16:01:43.409Z,12.30
2023-03-02T16:04:10.653Z,12.57
2023-03-02T16:06:37.560Z,12.90
2023-03-02T16:09:05.139Z,12.03
2023-03-02T16:11:33.426Z,12.60
2023-03-02T16:14:00.264Z,12.63
2023-03-02T16:16:27.198Z,13.03
2023-03-02T16:18:56.445Z,12.87
2023-03-02T16:21:24.595Z,13.90
2023-03-02T16:23:52.663Z,14.50
2023-03-02T16:26:21.507Z,15.50
2023-03-02T16:28:48.890Z,13.67
2023-03-02T16:31:18.890Z,14.27
2023-03-02T16:33:46.989Z,13.00
2023-03-02T16:36:14.654Z,14.43
2023-03-02T16:38:41.548Z,13.43
2023-03-02T16:41:22.627Z,13.20
2023-03-02T16:43:54.516Z,13.57
2023-03-02T16:46:23.152Z,14.00
2023-03-02T16:48:50.584Z,19.83
2023-03-02T16:51:18.702Z,26.00
2023-03-02T16:53:46.352Z,28.60
2023-03-02T16:56:14.443Z,30.03
2023-03-02T16:58:42.149Z,37.67
2023-03-02T17:01:12.623Z,30.93
2023-03-02T17:03:39.699Z,28.03
2023-03-02T17:06:08.637Z,25.43
2023-03-02T17:08:35.779Z,21.57
2023-03-02T17:11:02.938Z,20.97
2023-03-02T17:13:29.792Z,18.33
2023-03-02T17:15:57.465Z,19.70
2023-03-02T17:18:27.401Z,15.67
2023-03-02T17:20:56.234Z,17.03
2023-03-02T17:23:23.346Z,18.17
2023-03-02T17:25:50.268Z,24.17
2023-03-02T17:28:17.225Z,25.77
2023-03-02T17:30:44.507Z,25.93
2023-03-02T17:33:11.658Z,28.67
2023-03-02T17:35:38.725Z,32.63
2023-03-02T17:38:06.414Z,32.57
2023-03-02T17:40:33.367Z,36.53
2023-03-02T17:43:00.215Z,40.53
2023-03-02T17:45:28.771Z,41.30
2023-03-02T17:47:57.327Z,45.97
2023-03-02T17:50:24.724Z,47.33
2023-03-02T17:52:52.041Z,47.63
2023-03-02T17:55:19.255Z,50.03
2023-03-02T17:57:46.164Z,50.47
2023-03-02T18:00:16.868Z,49.80
2023-03-02T18:02:43.724Z,50.07
2023-03-02T18:05:10.917Z,49.57
2023-03-02T18:07:37.970Z,49.00
2023-03-02T18:10:05.840Z,49.97
2023-03-02T18:12:33.330Z,48.30
2023-03-02T18:15:00.337Z,48.13
2023-03-02T18:17:27.553Z,49.73
2023-03-02T18:19:54.478Z,47.53
2023-03-02T18:22:22.167Z,51.90
2023-03-02T18:24:50.544Z,49.77
2023-03-02T18:27:17.663Z,48.37
2023-03-02T18:29:44.646Z,48.63
2023-03-02T18:32:14.565Z,48.67
2023-03-02T18:34:41.665Z,47.67
2023-03-02T18:37:08.990Z,48.53
2023-03-02T18:39:38.046Z,49.77
2023-03-02T18:42:06.214Z,48.90
2023-03-02T18:44:33.789Z,50.87
2023-03-02T18:47:01.003Z,51.70
2023-03-02T18:49:29.004Z,51.67
2023-03-02T18:51:56.874Z,51.87
2023-03-02T18:54:24.247Z,53.20
2023-03-02T18:56:51.261Z,56.10
2023-03-02T18:59:18.526Z,56.07
2023-03-02T19:01:46.327Z,55.57
2023-03-02T19:04:14.517Z,57.37
2023-03-02T19:06:42.618Z,61.00
2023-03-02T19:09:09.966Z,55.27
2023-03-02T19:11:37.499Z,52.00
2023-03-02T19:14:04.830Z,51.33
2023-03-02T19:16:32.427Z,50.83
2023-03-02T19:18:59.806Z,52.93
2023-03-02T19:21:27.214Z,52.80
2023-03-02T19:23:54.608Z,54.93
2023-03-02T19:26:21.897Z,54.17
2023-03-02T19:28:49.037Z,54.73
2023-03-02T19:31:16.488Z,56.73
2023-03-02T19:33:45.430Z,60.67
2023-03-02T19:36:13.063Z,61.57
2023-03-02T19:38:44.626Z,62.97
2023-03-02T19:41:15.675Z,59.77
2023-03-02T19:43:45.543Z,59.93
2023-03-02T19:46:14.086Z,60.77
2023-03-02T19:48:42.115Z,60.30
2023-03-02T19:51:09.790Z,63.93
2023-03-02T19:53:38.919Z,59.87
2023-03-02T19:56:08.526Z,60.87
2023-03-02T19:58:36.198Z,61.40
2023-03-02T20:01:04.577Z,63.37
2023-03-02T20:03:31.555Z,63.87
2023-03-02T20:05:59.678Z,59.50
2023-03-02T20:08:27.119Z,60.33
2023-03-02T20:10:54.515Z,60.37
2023-03-02T20:13:21.866Z,58.83
2023-03-02T20:15:49.233Z,61.27
2023-03-02T20:18:19.339Z,58.17
2023-03-02T20:20:47.390Z,60.20
2023-03-02T20:23:15.071Z,121.67
2023-03-02T20:25:42.566Z,151.47
2023-03-02T20:28:12.482Z,181.73
2023-03-02T20:30:43.342Z,132.20
2023-03-02T20:33:12.126Z,112.03
2023-03-02T20:35:41.329Z,401.50
2023-03-02T20:38:13.155Z,441.87
2023-03-02T20:40:40.601Z,296.47
2023-03-02T20:43:07.842Z,168.83
2023-03-02T20:45:35.249Z,407.73
2023-03-02T20:48:02.653Z,347.30
2023-03-02T20:50:32.978Z,325.60
2023-03-02T20:53:00.640Z,425.80
2023-03-02T20:55:27.880Z,300.17
2023-03-02T20:57:55.751Z,339.83
2023-03-02T21:00:26.009Z,160.20
2023-03-02T21:02:53.020Z,135.60
2023-03-02T21:05:20.889Z,117.10
2023-03-02T21:07:49.108Z,100.30
2023-03-02T21:10:23.916Z,123.30
2023-03-02T21:12:51.320Z,101.37
2023-03-02T21:15:20.268Z,116.37
2023-03-02T21:17:47.792Z,164.23
2023-03-02T21:20:18.379Z,81.20
2023-03-02T21:22:46.224Z,84.63
2023-03-02T21:25:13.170Z,71.60
2023-03-02T21:27:41.186Z,58.47
2023-03-02T21:30:12.489Z,111.83
2023-03-02T21:32:41.306Z,84.43
2023-03-02T21:35:08.442Z,89.33
2023-03-02T21:37:35.738Z,69.90
2023-03-02T21:40:02.615Z,62.23
2023-03-02T21:42:30.025Z,57.03
2023-03-02T21:44:57.309Z,53.73
2023-03-02T21:47:24.597Z,67.50
2023-03-02T21:49:51.955Z,54.00
2023-03-02T21:52:19.238Z,52.07
2023-03-02T21:54:46.462Z,48.43
2023-03-02T21:57:13.720Z,48.80
2023-03-02T21:59:40.972Z,48.53
2023-03-02T22:02:08.307Z,49.43
2023-03-02T22:04:35.692Z,47.30
2023-03-02T22:07:02.612Z,44.80
2023-03-02T22:09:29.855Z,47.57
2023-03-02T22:11:58.118Z,48.20
2023-03-02T22:14:25.622Z,46.50
2023-03-02T22:16:52.819Z,47.33
2023-03-02T22:19:20.033Z,48.10
2023-03-02T22:21:50.884Z,46.57
2023-03-02T22:24:25.012Z,50.87
2023-03-02T22:27:16.712Z,51.60
2023-03-02T22:29:46.495Z,49.13
2023-03-02T22:32:17.429Z,48.07
2023-03-02T22:34:46.303Z,49.00
2023-03-02T22:37:22.485Z,48.30
2023-03-02T22:39:50.577Z,46.03
2023-03-02T22:42:20.358Z,48.97
2023-03-02T22:45:21.336Z,49.47
2023-03-02T22:47:51.528Z,47.47
2023-03-02T22:50:30.240Z,47.47
2023-03-02T22:52:58.304Z,45.53
2023-03-02T22:55:43.159Z,45.80
2023-03-02T22:58:43.829Z,46.30
2023-03-02T23:01:23.970Z,44.00
2023-03-02T23:03:58.141Z,43.47
2023-03-02T23:06:33.118Z,43.53
2023-03-02T23:09:04.324Z,45.60
2023-03-02T23:11:38.414Z,42.90
2023-03-02T23:14:46.741Z,45.37
2023-03-02T23:17:18.720Z,41.57
2023-03-02T23:19:45.728Z,43.43
2023-03-02T23:22:12.757Z,43.97
2023-03-02T23:24:39.737Z,44.17
2023-03-02T23:27:06.592Z,44.17
2023-03-02T23:29:33.467Z,43.37
2023-03-02T23:32:00.454Z,43.43
2023-03-02T23:34:31.096Z,44.00
2023-03-02T23:36:58.767Z,44.73
2023-03-02T23:39:26.555Z,44.17
2023-03-02T23:41:53.819Z,42.67
2023-03-02T23:44:21.215Z,48.70
2023-03-02T23:46:48.781Z,46.27
2023-03-02T23:49:16.059Z,45.20
2023-03-02T23:51:43.682Z,43.40
2023-03-02T23:54:11.036Z,43.07
2023-03-02T23:56:38.418Z,43.17
2023-03-02T23:59:05.668Z,45.17
